sensor_id;sensor_type;location;lat;lon;timestamp;P1;durP1;ratioP1;P2;durP2;ratioP2
44348;SDS011;30068;50.986;4.564;2022-12-18T00:03:56;25.70;;;10.52;;
44348;SDS011;30068;50.986;4.564;2022-12-18T00:06:22;24.65;;;10.40;;
44348;SDS011;30068;50.986;4.564;2022-12-18T00:08:50;27.40;;;11.75;;
44348;SDS011;30068;50.986;4.564;2022-12-18T00:11:19;27.30;;;11.43;;
44348;SDS011;30068;50.986;4.564;2022-12-18T00:13:47;26.38;;;11.20;;
44348;SDS011;30068;50.986;4.564;2022-12-18T00:16:14;27.92;;;11.32;;
44348;SDS011;30068;50.986;4.564;2022-12-18T00:18:43;28.05;;;11.73;;
44348;SDS011;30068;50.986;4.564;2022-12-18T00:21:09;25.08;;;11.10;;
44348;SDS011;30068;50.986;4.564;2022-12-18T00:23:36;26.42;;;11.55;;
44348;SDS011;30068;50.986;4.564;2022-12-18T00:26:04;24.23;;;11.00;;
44348;SDS011;30068;50.986;4.564;2022-12-18T00:28:32;27.55;;;12.38;;
44348;SDS011;30068;50.986;4.564;2022-12-18T00:31:04;25.10;;;11.57;;
44348;SDS011;30068;50.986;4.564;2022-12-18T00:33:32;29.55;;;11.32;;
44348;SDS011;30068;50.986;4.564;2022-12-18T00:36:05;23.88;;;11.00;;
44348;SDS011;30068;50.986;4.564;2022-12-18T00:38:42;29.55;;;12.27;;
44348;SDS011;30068;50.986;4.564;2022-12-18T00:41:08;26.27;;;10.98;;
44348;SDS011;30068;50.986;4.564;2022-12-18T00:43:34;25.23;;;11.35;;
44348;SDS011;30068;50.986;4.564;2022-12-18T00:46:00;24.25;;;11.23;;
44348;SDS011;30068;50.986;4.564;2022-12-18T00:48:26;25.00;;;11.75;;
44348;SDS011;30068;50.986;4.564;2022-12-18T00:50:52;25.42;;;11.40;;
44348;SDS011;30068;50.986;4.564;2022-12-18T00:53:17;27.67;;;11.95;;
44348;SDS011;30068;50.986;4.564;2022-12-18T00:55:43;25.00;;;11.82;;
44348;SDS011;30068;50.986;4.564;2022-12-18T00:58:10;25.48;;;11.65;;
44348;SDS011;30068;50.986;4.564;2022-12-18T01:00:37;27.25;;;11.35;;
44348;SDS011;30068;50.986;4.564;2022-12-18T01:03:02;26.75;;;11.52;;
44348;SDS011;30068;50.986;4.564;2022-12-18T01:05:28;26.05;;;12.07;;
44348;SDS011;30068;50.986;4.564;2022-12-18T01:07:54;25.00;;;11.30;;
44348;SDS011;30068;50.986;4.564;2022-12-18T01:10:20;25.83;;;11.18;;
44348;SDS011;30068;50.986;4.564;2022-12-18T01:12:46;26.35;;;11.95;;
44348;SDS011;30068;50.986;4.564;2022-12-18T01:15:12;27.63;;;11.82;;
44348;SDS011;30068;50.986;4.564;2022-12-18T01:17:37;27.95;;;11.77;;
44348;SDS011;30068;50.986;4.564;2022-12-18T01:20:03;23.15;;;11.00;;
44348;SDS011;30068;50.986;4.564;2022-12-18T01:22:29;25.13;;;11.88;;
44348;SDS011;30068;50.986;4.564;2022-12-18T01:24:54;28.63;;;12.68;;
44348;SDS011;30068;50.986;4.564;2022-12-18T01:27:20;26.00;;;12.02;;
44348;SDS011;30068;50.986;4.564;2022-12-18T01:29:45;24.67;;;11.75;;
44348;SDS011;30068;50.986;4.564;2022-12-18T01:32:10;29.38;;;13.10;;
44348;SDS011;30068;50.986;4.564;2022-12-18T01:34:36;26.90;;;11.68;;
44348;SDS011;30068;50.986;4.564;2022-12-18T01:37:02;25.70;;;11.80;;
44348;SDS011;30068;50.986;4.564;2022-12-18T01:39:29;24.13;;;11.85;;
44348;SDS011;30068;50.986;4.564;2022-12-18T01:41:54;26.02;;;11.60;;
44348;SDS011;30068;50.986;4.564;2022-12-18T01:49:57;25.40;;;11.63;;
44348;SDS011;30068;50.986;4.564;2022-12-18T01:52:25;26.15;;;11.63;;
44348;SDS011;30068;50.986;4.564;2022-12-18T01:54:53;28.23;;;12.18;;
44348;SDS011;30068;50.986;4.564;2022-12-18T01:57:19;28.25;;;12.60;;
44348;SDS011;30068;50.986;4.564;2022-12-18T01:59:46;29.08;;;12.13;;
44348;SDS011;30068;50.986;4.564;2022-12-18T02:02:16;27.30;;;12.07;;
44348;SDS011;30068;50.986;4.564;2022-12-18T02:04:42;27.35;;;11.93;;
44348;SDS011;30068;50.986;4.564;2022-12-18T02:12:37;26.02;;;11.75;;
44348;SDS011;30068;50.986;4.564;2022-12-18T02:18:15;26.88;;;12.00;;
44348;SDS011;30068;50.986;4.564;2022-12-18T02:21:09;27.88;;;11.68;;
44348;SDS011;30068;50.986;4.564;2022-12-18T02:23:47;25.10;;;11.32;;
44348;SDS011;30068;50.986;4.564;2022-12-18T02:29:01;27.10;;;12.10;;
44348;SDS011;30068;50.986;4.564;2022-12-18T02:31:36;24.88;;;12.35;;
44348;SDS011;30068;50.986;4.564;2022-12-18T02:34:07;25.10;;;11.23;;
44348;SDS011;30068;50.986;4.564;2022-12-18T02:36:35;27.70;;;11.68;;
44348;SDS011;30068;50.986;4.564;2022-12-18T02:39:03;25.20;;;11.93;;
44348;SDS011;30068;50.986;4.564;2022-12-18T02:41:31;25.50;;;11.50;;
44348;SDS011;30068;50.986;4.564;2022-12-18T02:44:00;27.23;;;12.00;;
44348;SDS011;30068;50.986;4.564;2022-12-18T02:46:28;26.58;;;12.30;;
44348;SDS011;30068;50.986;4.564;2022-12-18T02:49:00;27.00;;;12.20;;
44348;SDS011;30068;50.986;4.564;2022-12-18T02:51:50;26.73;;;11.05;;
44348;SDS011;30068;50.986;4.564;2022-12-18T02:54:26;25.90;;;11.98;;
44348;SDS011;30068;50.986;4.564;2022-12-18T02:56:54;27.00;;;11.57;;
44348;SDS011;30068;50.986;4.564;2022-12-18T02:59:29;27.77;;;12.38;;
44348;SDS011;30068;50.986;4.564;2022-12-18T03:04:57;26.83;;;12.00;;
44348;SDS011;30068;50.986;4.564;2022-12-18T03:07:42;25.27;;;11.82;;
44348;SDS011;30068;50.986;4.564;2022-12-18T03:10:14;29.45;;;12.23;;
44348;SDS011;30068;50.986;4.564;2022-12-18T03:12:47;26.83;;;11.52;;
44348;SDS011;30068;50.986;4.564;2022-12-18T03:17:55;25.02;;;12.10;;
44348;SDS011;30068;50.986;4.564;2022-12-18T03:20:24;28.85;;;12.98;;
44348;SDS011;30068;50.986;4.564;2022-12-18T03:22:53;26.15;;;11.88;;
44348;SDS011;30068;50.986;4.564;2022-12-18T03:25:24;27.60;;;11.23;;
44348;SDS011;30068;50.986;4.564;2022-12-18T03:27:53;26.27;;;11.35;;
44348;SDS011;30068;50.986;4.564;2022-12-18T03:30:22;27.25;;;12.50;;
44348;SDS011;30068;50.986;4.564;2022-12-18T03:33:09;25.55;;;11.55;;
44348;SDS011;30068;50.986;4.564;2022-12-18T03:35:41;25.02;;;11.20;;
44348;SDS011;30068;50.986;4.564;2022-12-18T03:38:08;27.45;;;12.05;;
44348;SDS011;30068;50.986;4.564;2022-12-18T03:40:45;28.65;;;11.65;;
44348;SDS011;30068;50.986;4.564;2022-12-18T03:46:02;26.98;;;11.32;;
44348;SDS011;30068;50.986;4.564;2022-12-18T03:51:15;30.98;;;11.90;;
44348;SDS011;30068;50.986;4.564;2022-12-18T03:53:48;25.75;;;11.35;;
44348;SDS011;30068;50.986;4.564;2022-12-18T03:56:15;26.67;;;11.68;;
44348;SDS011;30068;50.986;4.564;2022-12-18T03:58:42;25.73;;;11.68;;
44348;SDS011;30068;50.986;4.564;2022-12-18T04:01:11;25.05;;;11.32;;
44348;SDS011;30068;50.986;4.564;2022-12-18T04:03:39;25.88;;;11.65;;
44348;SDS011;30068;50.986;4.564;2022-12-18T04:06:07;24.95;;;11.20;;
44348;SDS011;30068;50.986;4.564;2022-12-18T04:08:33;25.75;;;11.32;;
44348;SDS011;30068;50.986;4.564;2022-12-18T04:11:00;27.33;;;11.18;;
44348;SDS011;30068;50.986;4.564;2022-12-18T04:13:29;26.80;;;11.48;;
44348;SDS011;30068;50.986;4.564;2022-12-18T04:15:58;27.40;;;11.27;;
44348;SDS011;30068;50.986;4.564;2022-12-18T04:18:23;21.85;;;10.77;;
44348;SDS011;30068;50.986;4.564;2022-12-18T04:20:48;28.05;;;11.20;;
44348;SDS011;30068;50.986;4.564;2022-12-18T04:23:14;23.33;;;10.32;;
44348;SDS011;30068;50.986;4.564;2022-12-18T04:25:39;23.25;;;10.60;;
44348;SDS011;30068;50.986;4.564;2022-12-18T04:28:04;24.92;;;11.48;;
44348;SDS011;30068;50.986;4.564;2022-12-18T04:30:30;24.23;;;10.95;;
44348;SDS011;30068;50.986;4.564;2022-12-18T04:32:55;25.20;;;10.95;;
44348;SDS011;30068;50.986;4.564;2022-12-18T04:35:21;23.70;;;10.70;;
44348;SDS011;30068;50.986;4.564;2022-12-18T04:37:46;24.83;;;10.93;;
44348;SDS011;30068;50.986;4.564;2022-12-18T04:40:11;23.15;;;10.85;;
44348;SDS011;30068;50.986;4.564;2022-12-18T04:42:37;24.52;;;11.40;;
44348;SDS011;30068;50.986;4.564;2022-12-18T04:45:04;26.83;;;11.15;;
44348;SDS011;30068;50.986;4.564;2022-12-18T04:47:30;27.98;;;10.70;;
44348;SDS011;30068;50.986;4.564;2022-12-18T04:49:55;29.00;;;11.27;;
44348;SDS011;30068;50.986;4.564;2022-12-18T04:52:21;24.38;;;11.43;;
44348;SDS011;30068;50.986;4.564;2022-12-18T04:54:46;24.08;;;10.73;;
44348;SDS011;30068;50.986;4.564;2022-12-18T04:57:11;27.65;;;11.45;;
44348;SDS011;30068;50.986;4.564;2022-12-18T04:59:37;28.70;;;11.27;;
44348;SDS011;30068;50.986;4.564;2022-12-18T05:02:02;25.02;;;10.52;;
44348;SDS011;30068;50.986;4.564;2022-12-18T05:04:27;24.70;;;10.95;;
44348;SDS011;30068;50.986;4.564;2022-12-18T05:06:53;23.58;;;10.57;;
44348;SDS011;30068;50.986;4.564;2022-12-18T05:09:18;24.00;;;10.85;;
44348;SDS011;30068;50.986;4.564;2022-12-18T05:11:43;21.30;;;9.68;;
44348;SDS011;30068;50.986;4.564;2022-12-18T05:14:08;25.42;;;11.00;;
44348;SDS011;30068;50.986;4.564;2022-12-18T05:16:34;24.80;;;10.35;;
44348;SDS011;30068;50.986;4.564;2022-12-18T05:18:59;24.50;;;10.50;;
44348;SDS011;30068;50.986;4.564;2022-12-18T05:21:24;23.60;;;10.20;;
44348;SDS011;30068;50.986;4.564;2022-12-18T05:23:50;24.90;;;10.20;;
44348;SDS011;30068;50.986;4.564;2022-12-18T05:26:16;22.85;;;10.65;;
44348;SDS011;30068;50.986;4.564;2022-12-18T05:28:43;21.88;;;10.52;;
44348;SDS011;30068;50.986;4.564;2022-12-18T05:31:09;23.55;;;10.43;;
44348;SDS011;30068;50.986;4.564;2022-12-18T05:33:34;22.98;;;9.75;;
44348;SDS011;30068;50.986;4.564;2022-12-18T05:36:00;23.80;;;10.48;;
44348;SDS011;30068;50.986;4.564;2022-12-18T05:38:27;22.40;;;10.13;;
44348;SDS011;30068;50.986;4.564;2022-12-18T05:40:54;24.17;;;10.38;;
44348;SDS011;30068;50.986;4.564;2022-12-18T05:43:19;22.98;;;10.55;;
44348;SDS011;30068;50.986;4.564;2022-12-18T05:45:49;21.20;;;10.02;;
44348;SDS011;30068;50.986;4.564;2022-12-18T05:48:15;22.75;;;9.98;;
44348;SDS011;30068;50.986;4.564;2022-12-18T05:50:42;25.08;;;10.57;;
44348;SDS011;30068;50.986;4.564;2022-12-18T05:53:12;24.50;;;10.35;;
44348;SDS011;30068;50.986;4.564;2022-12-18T05:55:40;21.48;;;10.23;;
44348;SDS011;30068;50.986;4.564;2022-12-18T05:58:06;27.15;;;10.90;;
44348;SDS011;30068;50.986;4.564;2022-12-18T06:00:35;21.10;;;10.07;;
44348;SDS011;30068;50.986;4.564;2022-12-18T06:03:08;25.30;;;10.23;;
44348;SDS011;30068;50.986;4.564;2022-12-18T06:05:35;20.77;;;9.43;;
44348;SDS011;30068;50.986;4.564;2022-12-18T06:08:02;23.90;;;10.48;;
44348;SDS011;30068;50.986;4.564;2022-12-18T06:10:27;19.85;;;9.20;;
44348;SDS011;30068;50.986;4.564;2022-12-18T06:12:53;22.63;;;10.38;;
44348;SDS011;30068;50.986;4.564;2022-12-18T06:15:18;23.15;;;10.00;;
44348;SDS011;30068;50.986;4.564;2022-12-18T06:17:43;23.83;;;9.88;;
44348;SDS011;30068;50.986;4.564;2022-12-18T06:20:09;22.92;;;9.93;;
44348;SDS011;30068;50.986;4.564;2022-12-18T06:22:34;21.10;;;9.70;;
44348;SDS011;30068;50.986;4.564;2022-12-18T06:25:00;25.38;;;10.05;;
44348;SDS011;30068;50.986;4.564;2022-12-18T06:27:25;23.30;;;10.20;;
44348;SDS011;30068;50.986;4.564;2022-12-18T06:29:50;21.85;;;8.98;;
44348;SDS011;30068;50.986;4.564;2022-12-18T06:32:16;23.63;;;9.75;;
44348;SDS011;30068;50.986;4.564;2022-12-18T06:34:41;22.38;;;9.30;;
44348;SDS011;30068;50.986;4.564;2022-12-18T06:37:07;25.52;;;9.95;;
44348;SDS011;30068;50.986;4.564;2022-12-18T06:39:32;22.38;;;9.77;;
44348;SDS011;30068;50.986;4.564;2022-12-18T06:41:57;21.83;;;9.20;;
44348;SDS011;30068;50.986;4.564;2022-12-18T06:44:22;20.08;;;9.55;;
44348;SDS011;30068;50.986;4.564;2022-12-18T06:46:48;19.65;;;9.15;;
44348;SDS011;30068;50.986;4.564;2022-12-18T06:49:13;21.98;;;8.70;;
44348;SDS011;30068;50.986;4.564;2022-12-18T06:51:39;25.65;;;9.90;;
44348;SDS011;30068;50.986;4.564;2022-12-18T06:54:04;20.65;;;9.70;;
44348;SDS011;30068;50.986;4.564;2022-12-18T06:56:30;21.75;;;9.25;;
44348;SDS011;30068;50.986;4.564;2022-12-18T06:58:55;20.13;;;9.23;;
44348;SDS011;30068;50.986;4.564;2022-12-18T07:01:21;20.08;;;9.00;;
44348;SDS011;30068;50.986;4.564;2022-12-18T07:03:51;18.60;;;8.73;;
44348;SDS011;30068;50.986;4.564;2022-12-18T07:06:19;20.30;;;9.43;;
44348;SDS011;30068;50.986;4.564;2022-12-18T07:08:46;21.35;;;9.13;;
44348;SDS011;30068;50.986;4.564;2022-12-18T07:11:12;19.63;;;9.02;;
44348;SDS011;30068;50.986;4.564;2022-12-18T07:13:38;19.58;;;8.00;;
44348;SDS011;30068;50.986;4.564;2022-12-18T07:16:10;20.92;;;9.15;;
44348;SDS011;30068;50.986;4.564;2022-12-18T07:18:37;23.33;;;9.73;;
44348;SDS011;30068;50.986;4.564;2022-12-18T07:21:06;21.52;;;9.43;;
44348;SDS011;30068;50.986;4.564;2022-12-18T07:23:33;24.98;;;9.85;;
44348;SDS011;30068;50.986;4.564;2022-12-18T07:26:06;22.20;;;9.45;;
44348;SDS011;30068;50.986;4.564;2022-12-18T07:31:03;20.17;;;8.55;;
44348;SDS011;30068;50.986;4.564;2022-12-18T07:33:31;22.63;;;9.15;;
44348;SDS011;30068;50.986;4.564;2022-12-18T07:36:04;19.85;;;9.15;;
44348;SDS011;30068;50.986;4.564;2022-12-18T07:38:31;22.30;;;8.70;;
44348;SDS011;30068;50.986;4.564;2022-12-18T07:41:02;20.30;;;9.20;;
44348;SDS011;30068;50.986;4.564;2022-12-18T07:43:32;20.75;;;9.02;;
44348;SDS011;30068;50.986;4.564;2022-12-18T07:45:58;24.05;;;9.10;;
44348;SDS011;30068;50.986;4.564;2022-12-18T07:48:23;21.33;;;8.73;;
44348;SDS011;30068;50.986;4.564;2022-12-18T07:50:48;25.00;;;9.77;;
44348;SDS011;30068;50.986;4.564;2022-12-18T07:53:14;20.52;;;8.93;;
44348;SDS011;30068;50.986;4.564;2022-12-18T07:55:39;20.33;;;8.68;;
44348;SDS011;30068;50.986;4.564;2022-12-18T07:58:06;20.08;;;8.43;;
44348;SDS011;30068;50.986;4.564;2022-12-18T08:00:32;19.75;;;8.80;;
44348;SDS011;30068;50.986;4.564;2022-12-18T08:02:58;19.77;;;8.75;;
44348;SDS011;30068;50.986;4.564;2022-12-18T08:05:23;20.52;;;9.30;;
44348;SDS011;30068;50.986;4.564;2022-12-18T08:07:48;18.85;;;8.93;;
44348;SDS011;30068;50.986;4.564;2022-12-18T08:10:14;20.17;;;9.07;;
44348;SDS011;30068;50.986;4.564;2022-12-18T08:12:39;21.67;;;8.75;;
44348;SDS011;30068;50.986;4.564;2022-12-18T08:15:05;22.23;;;8.82;;
44348;SDS011;30068;50.986;4.564;2022-12-18T08:17:31;17.98;;;8.60;;
44348;SDS011;30068;50.986;4.564;2022-12-18T08:19:56;19.52;;;8.07;;
44348;SDS011;30068;50.986;4.564;2022-12-18T08:22:21;20.05;;;8.50;;
44348;SDS011;30068;50.986;4.564;2022-12-18T08:24:47;24.13;;;9.30;;
44348;SDS011;30068;50.986;4.564;2022-12-18T08:27:12;20.20;;;8.70;;
44348;SDS011;30068;50.986;4.564;2022-12-18T08:29:37;21.10;;;8.60;;
44348;SDS011;30068;50.986;4.564;2022-12-18T08:32:03;19.95;;;8.27;;
44348;SDS011;30068;50.986;4.564;2022-12-18T08:34:28;21.02;;;8.45;;
44348;SDS011;30068;50.986;4.564;2022-12-18T08:36:54;18.95;;;8.15;;
44348;SDS011;30068;50.986;4.564;2022-12-18T08:39:19;20.92;;;8.43;;
44348;SDS011;30068;50.986;4.564;2022-12-18T08:41:44;23.83;;;10.18;;
44348;SDS011;30068;50.986;4.564;2022-12-18T08:44:30;24.80;;;10.35;;
44348;SDS011;30068;50.986;4.564;2022-12-18T08:47:07;25.33;;;10.05;;
44348;SDS011;30068;50.986;4.564;2022-12-18T08:49:33;23.85;;;9.82;;
44348;SDS011;30068;50.986;4.564;2022-12-18T08:51:59;27.13;;;10.40;;
44348;SDS011;30068;50.986;4.564;2022-12-18T08:54:25;25.20;;;10.65;;
44348;SDS011;30068;50.986;4.564;2022-12-18T08:56:51;25.13;;;10.55;;
44348;SDS011;30068;50.986;4.564;2022-12-18T08:59:17;23.63;;;10.05;;
44348;SDS011;30068;50.986;4.564;2022-12-18T09:01:43;21.45;;;9.27;;
44348;SDS011;30068;50.986;4.564;2022-12-18T09:04:09;20.13;;;9.68;;
44348;SDS011;30068;50.986;4.564;2022-12-18T09:06:34;21.48;;;9.73;;
44348;SDS011;30068;50.986;4.564;2022-12-18T09:09:00;18.88;;;9.85;;
44348;SDS011;30068;50.986;4.564;2022-12-18T09:11:27;24.50;;;9.88;;
44348;SDS011;30068;50.986;4.564;2022-12-18T09:13:53;18.58;;;8.60;;
44348;SDS011;30068;50.986;4.564;2022-12-18T09:16:19;20.45;;;9.10;;
44348;SDS011;30068;50.986;4.564;2022-12-18T09:18:46;18.77;;;8.45;;
44348;SDS011;30068;50.986;4.564;2022-12-18T09:21:13;18.80;;;8.40;;
44348;SDS011;30068;50.986;4.564;2022-12-18T09:23:40;19.45;;;8.43;;
44348;SDS011;30068;50.986;4.564;2022-12-18T09:26:06;18.02;;;8.55;;
44348;SDS011;30068;50.986;4.564;2022-12-18T09:28:31;15.45;;;7.80;;
44348;SDS011;30068;50.986;4.564;2022-12-18T09:30:57;20.02;;;8.73;;
44348;SDS011;30068;50.986;4.564;2022-12-18T09:33:22;18.95;;;8.20;;
44348;SDS011;30068;50.986;4.564;2022-12-18T09:35:47;16.70;;;7.95;;
44348;SDS011;30068;50.986;4.564;2022-12-18T09:38:14;17.60;;;7.93;;
44348;SDS011;30068;50.986;4.564;2022-12-18T09:40:45;19.20;;;7.72;;
44348;SDS011;30068;50.986;4.564;2022-12-18T09:43:35;16.02;;;7.85;;
44348;SDS011;30068;50.986;4.564;2022-12-18T09:46:08;18.80;;;7.90;;
44348;SDS011;30068;50.986;4.564;2022-12-18T09:48:41;15.18;;;7.07;;
44348;SDS011;30068;50.986;4.564;2022-12-18T09:51:13;15.25;;;7.53;;
44348;SDS011;30068;50.986;4.564;2022-12-18T09:53:44;15.82;;;7.50;;
44348;SDS011;30068;50.986;4.564;2022-12-18T09:56:31;16.45;;;7.60;;
44348;SDS011;30068;50.986;4.564;2022-12-18T09:59:02;18.05;;;6.82;;
44348;SDS011;30068;50.986;4.564;2022-12-18T10:01:29;14.48;;;7.00;;
44348;SDS011;30068;50.986;4.564;2022-12-18T10:03:56;15.23;;;7.25;;
44348;SDS011;30068;50.986;4.564;2022-12-18T10:06:30;18.67;;;7.85;;
44348;SDS011;30068;50.986;4.564;2022-12-18T10:11:43;14.50;;;7.15;;
44348;SDS011;30068;50.986;4.564;2022-12-18T10:14:21;15.93;;;6.95;;
44348;SDS011;30068;50.986;4.564;2022-12-18T10:19:43;16.35;;;6.60;;
44348;SDS011;30068;50.986;4.564;2022-12-18T10:28:12;14.88;;;7.25;;
44348;SDS011;30068;50.986;4.564;2022-12-18T10:30:40;17.17;;;7.07;;
44348;SDS011;30068;50.986;4.564;2022-12-18T10:33:10;18.65;;;7.22;;
44348;SDS011;30068;50.986;4.564;2022-12-18T10:35:38;17.27;;;7.93;;
44348;SDS011;30068;50.986;4.564;2022-12-18T10:40:48;15.70;;;7.40;;
44348;SDS011;30068;50.986;4.564;2022-12-18T10:43:19;13.38;;;6.55;;
44348;SDS011;30068;50.986;4.564;2022-12-18T10:48:36;14.60;;;6.97;;
44348;SDS011;30068;50.986;4.564;2022-12-18T10:51:05;15.23;;;6.63;;
44348;SDS011;30068;50.986;4.564;2022-12-18T10:53:34;13.48;;;6.53;;
44348;SDS011;30068;50.986;4.564;2022-12-18T10:56:02;11.77;;;6.03;;
44348;SDS011;30068;50.986;4.564;2022-12-18T10:58:33;14.63;;;6.47;;
44348;SDS011;30068;50.986;4.564;2022-12-18T11:03:44;14.27;;;6.90;;
44348;SDS011;30068;50.986;4.564;2022-12-18T11:06:30;13.95;;;6.15;;
44348;SDS011;30068;50.986;4.564;2022-12-18T11:11:26;13.48;;;5.90;;
44348;SDS011;30068;50.986;4.564;2022-12-18T11:16:51;14.55;;;5.97;;
44348;SDS011;30068;50.986;4.564;2022-12-18T11:19:21;11.68;;;6.07;;
44348;SDS011;30068;50.986;4.564;2022-12-18T11:21:49;11.85;;;5.88;;
44348;SDS011;30068;50.986;4.564;2022-12-18T11:24:19;14.27;;;5.78;;
44348;SDS011;30068;50.986;4.564;2022-12-18T11:26:51;13.35;;;5.90;;
44348;SDS011;30068;50.986;4.564;2022-12-18T11:29:17;13.00;;;5.68;;
44348;SDS011;30068;50.986;4.564;2022-12-18T11:31:48;14.90;;;6.32;;
44348;SDS011;30068;50.986;4.564;2022-12-18T11:34:19;12.35;;;5.50;;
44348;SDS011;30068;50.986;4.564;2022-12-18T11:36:52;12.82;;;5.88;;
44348;SDS011;30068;50.986;4.564;2022-12-18T11:41:52;15.55;;;7.32;;
44348;SDS011;30068;50.986;4.564;2022-12-18T11:44:48;16.02;;;6.65;;
44348;SDS011;30068;50.986;4.564;2022-12-18T11:47:21;15.88;;;6.43;;
44348;SDS011;30068;50.986;4.564;2022-12-18T11:49:54;14.63;;;6.55;;
44348;SDS011;30068;50.986;4.564;2022-12-18T11:52:25;13.73;;;6.20;;
44348;SDS011;30068;50.986;4.564;2022-12-18T11:54:59;14.13;;;6.32;;
44348;SDS011;30068;50.986;4.564;2022-12-18T12:00:18;13.20;;;6.32;;
44348;SDS011;30068;50.986;4.564;2022-12-18T12:05:43;14.18;;;6.18;;
44348;SDS011;30068;50.986;4.564;2022-12-18T12:13:48;11.45;;;5.55;;
44348;SDS011;30068;50.986;4.564;2022-12-18T12:16:29;12.35;;;5.78;;
44348;SDS011;30068;50.986;4.564;2022-12-18T12:22:04;11.50;;;5.57;;
44348;SDS011;30068;50.986;4.564;2022-12-18T12:24:55;12.63;;;5.40;;
44348;SDS011;30068;50.986;4.564;2022-12-18T12:30:11;16.27;;;5.93;;
44348;SDS011;30068;50.986;4.564;2022-12-18T12:40:36;12.45;;;5.80;;
44348;SDS011;30068;50.986;4.564;2022-12-18T12:43:15;12.43;;;5.53;;
44348;SDS011;30068;50.986;4.564;2022-12-18T12:45:49;11.30;;;5.15;;
44348;SDS011;30068;50.986;4.564;2022-12-18T12:51:09;12.00;;;5.50;;
44348;SDS011;30068;50.986;4.564;2022-12-18T12:53:42;12.43;;;5.35;;
44348;SDS011;30068;50.986;4.564;2022-12-18T12:56:08;14.05;;;5.50;;
44348;SDS011;30068;50.986;4.564;2022-12-18T12:58:39;16.15;;;6.45;;
44348;SDS011;30068;50.986;4.564;2022-12-18T13:03:54;12.05;;;5.45;;
44348;SDS011;30068;50.986;4.564;2022-12-18T13:06:46;12.93;;;5.70;;
44348;SDS011;30068;50.986;4.564;2022-12-18T13:09:19;11.57;;;5.75;;
44348;SDS011;30068;50.986;4.564;2022-12-18T13:11:45;13.02;;;5.47;;
44348;SDS011;30068;50.986;4.564;2022-12-18T13:14:34;12.30;;;6.28;;
44348;SDS011;30068;50.986;4.564;2022-12-18T13:19:49;12.02;;;5.47;;
44348;SDS011;30068;50.986;4.564;2022-12-18T13:22:22;11.70;;;5.68;;
44348;SDS011;30068;50.986;4.564;2022-12-18T13:24:53;11.20;;;5.45;;
44348;SDS011;30068;50.986;4.564;2022-12-18T13:28:02;13.57;;;6.00;;
44348;SDS011;30068;50.986;4.564;2022-12-18T13:30:40;12.95;;;5.70;;
44348;SDS011;30068;50.986;4.564;2022-12-18T13:38:21;17.63;;;7.57;;
44348;SDS011;30068;50.986;4.564;2022-12-18T13:45:50;20.30;;;10.45;;
44348;SDS011;30068;50.986;4.564;2022-12-18T13:48:25;19.92;;;9.57;;
44348;SDS011;30068;50.986;4.564;2022-12-18T13:50:55;24.00;;;11.88;;
44348;SDS011;30068;50.986;4.564;2022-12-18T13:53:27;20.88;;;9.70;;
44348;SDS011;30068;50.986;4.564;2022-12-18T13:55:57;21.30;;;8.55;;
44348;SDS011;30068;50.986;4.564;2022-12-18T13:58:23;21.27;;;9.02;;
44348;SDS011;30068;50.986;4.564;2022-12-18T14:00:48;18.42;;;7.75;;
44348;SDS011;30068;50.986;4.564;2022-12-18T14:03:18;21.52;;;8.38;;
44348;SDS011;30068;50.986;4.564;2022-12-18T14:05:46;15.50;;;7.13;;
44348;SDS011;30068;50.986;4.564;2022-12-18T14:08:18;13.98;;;7.10;;
44348;SDS011;30068;50.986;4.564;2022-12-18T14:10:45;14.32;;;6.50;;
44348;SDS011;30068;50.986;4.564;2022-12-18T14:13:15;15.75;;;6.47;;
44348;SDS011;30068;50.986;4.564;2022-12-18T14:15:46;14.93;;;6.90;;
44348;SDS011;30068;50.986;4.564;2022-12-18T14:20:57;13.93;;;6.43;;
44348;SDS011;30068;50.986;4.564;2022-12-18T14:26:25;11.77;;;6.18;;
44348;SDS011;30068;50.986;4.564;2022-12-18T14:28:52;13.50;;;5.85;;
44348;SDS011;30068;50.986;4.564;2022-12-18T14:31:19;11.88;;;6.18;;
44348;SDS011;30068;50.986;4.564;2022-12-18T14:33:47;10.93;;;5.60;;
44348;SDS011;30068;50.986;4.564;2022-12-18T14:36:16;11.70;;;5.93;;
44348;SDS011;30068;50.986;4.564;2022-12-18T14:38:47;12.43;;;6.15;;
44348;SDS011;30068;50.986;4.564;2022-12-18T14:41:15;14.68;;;5.97;;
44348;SDS011;30068;50.986;4.564;2022-12-18T14:43:43;12.98;;;6.13;;
44348;SDS011;30068;50.986;4.564;2022-12-18T14:48:57;14.38;;;6.45;;
44348;SDS011;30068;50.986;4.564;2022-12-18T14:51:25;11.75;;;5.90;;
44348;SDS011;30068;50.986;4.564;2022-12-18T14:54:14;12.23;;;6.00;;
44348;SDS011;30068;50.986;4.564;2022-12-18T14:56:45;14.13;;;5.72;;
44348;SDS011;30068;50.986;4.564;2022-12-18T14:59:14;13.38;;;6.03;;
44348;SDS011;30068;50.986;4.564;2022-12-18T15:01:45;12.10;;;5.60;;
44348;SDS011;30068;50.986;4.564;2022-12-18T15:04:34;14.40;;;6.20;;
44348;SDS011;30068;50.986;4.564;2022-12-18T15:07:05;12.13;;;6.25;;
44348;SDS011;30068;50.986;4.564;2022-12-18T15:12:41;14.50;;;6.63;;
44348;SDS011;30068;50.986;4.564;2022-12-18T15:18:13;13.07;;;6.53;;
44348;SDS011;30068;50.986;4.564;2022-12-18T15:20:54;12.75;;;5.55;;
44348;SDS011;30068;50.986;4.564;2022-12-18T15:23:25;13.15;;;6.00;;
44348;SDS011;30068;50.986;4.564;2022-12-18T15:26:11;14.23;;;6.55;;
44348;SDS011;30068;50.986;4.564;2022-12-18T15:28:52;17.40;;;6.60;;
44348;SDS011;30068;50.986;4.564;2022-12-18T15:31:24;15.20;;;6.88;;
44348;SDS011;30068;50.986;4.564;2022-12-18T15:36:20;14.48;;;6.60;;
44348;SDS011;30068;50.986;4.564;2022-12-18T15:38:53;14.85;;;6.65;;
44348;SDS011;30068;50.986;4.564;2022-12-18T15:41:20;14.18;;;6.60;;
44348;SDS011;30068;50.986;4.564;2022-12-18T15:43:47;12.57;;;6.38;;
44348;SDS011;30068;50.986;4.564;2022-12-18T15:46:18;14.48;;;6.35;;
44348;SDS011;30068;50.986;4.564;2022-12-18T15:48:46;13.82;;;6.28;;
44348;SDS011;30068;50.986;4.564;2022-12-18T15:51:19;12.15;;;5.90;;
44348;SDS011;30068;50.986;4.564;2022-12-18T15:53:52;14.10;;;6.05;;
44348;SDS011;30068;50.986;4.564;2022-12-18T15:56:19;14.70;;;6.85;;
44348;SDS011;30068;50.986;4.564;2022-12-18T15:59:07;14.40;;;6.45;;
44348;SDS011;30068;50.986;4.564;2022-12-18T16:01:35;13.40;;;6.57;;
44348;SDS011;30068;50.986;4.564;2022-12-18T16:04:01;16.10;;;6.03;;
44348;SDS011;30068;50.986;4.564;2022-12-18T16:06:26;11.85;;;6.03;;
44348;SDS011;30068;50.986;4.564;2022-12-18T16:08:51;14.77;;;6.65;;
44348;SDS011;30068;50.986;4.564;2022-12-18T16:11:27;12.63;;;6.50;;
44348;SDS011;30068;50.986;4.564;2022-12-18T16:16:49;14.13;;;6.32;;
44348;SDS011;30068;50.986;4.564;2022-12-18T16:19:16;14.10;;;6.28;;
44348;SDS011;30068;50.986;4.564;2022-12-18T16:21:42;13.13;;;6.15;;
44348;SDS011;30068;50.986;4.564;2022-12-18T16:24:15;13.50;;;6.10;;
44348;SDS011;30068;50.986;4.564;2022-12-18T16:26:48;15.57;;;6.68;;
44348;SDS011;30068;50.986;4.564;2022-12-18T16:29:16;13.85;;;6.20;;
44348;SDS011;30068;50.986;4.564;2022-12-18T16:31:42;14.85;;;6.78;;
44348;SDS011;30068;50.986;4.564;2022-12-18T16:36:36;13.15;;;6.03;;
44348;SDS011;30068;50.986;4.564;2022-12-18T16:39:02;12.60;;;5.95;;
44348;SDS011;30068;50.986;4.564;2022-12-18T16:41:27;13.23;;;6.00;;
44348;SDS011;30068;50.986;4.564;2022-12-18T16:44:01;13.32;;;5.82;;
44348;SDS011;30068;50.986;4.564;2022-12-18T16:46:27;13.80;;;6.00;;